Time;durP1;ratioP1;P1;durP2;ratioP2;P2;SDS_P1;SDS_P2;PMS_P1;PMS_P2;Temp;Humidity;BMP_temperature;BMP_pressure;BME280_temperature;BME280_humidity;BME280_pressure;Samples;Min_cycle;Max_cycle;Signal;HPM_P1;HPM_P2
2023/03/29 05:52:52;;;;;;;5.18;2.60;;;;;;;;;;10585471;27;20408;-79
2023/03/29 05:57:53;;;;;;;5.40;2.88;;;;;;;;;;10582663;28;20046;-79
2023/03/29 06:02:57;;;;;;;4.68;3.08;;;;;;;;;;10587578;28;20063;-80
2023/03/29 06:07:59;;;;;;;5.15;3.55;;;;;;;;;;10585250;28;20012;-80
2023/03/29 06:13:00;;;;;;;5.82;3.60;;;;;;;;;;10583835;28;20016;-79
2023/03/29 06:18:02;;;;;;;4.28;3.30;;;;;;;;;;10584994;28;20027;-80
2023/03/29 06:23:03;;;;;;;2.58;1.50;;;;;;;;;;10586041;28;20378;-81
2023/03/29 06:28:04;;;;;;;2.78;1.95;;;;;;;;;;10582920;28;20393;-80
2023/03/29 06:33:06;;;;;;;5.50;3.80;;;;;;;;;;10582947;28;20096;-79
2023/03/29 06:38:06;;;;;;;;;;;;;;;;;;10584946;28;20123;-79
2023/03/29 06:43:08;;;;;;;2.58;1.80;;;;;;;;;;10585201;28;19910;-79
2023/03/29 06:48:08;;;;;;;;;;;;;;;;;;10582700;28;20137;-80
2023/03/29 06:53:10;;;;;;;3.33;2.00;;;;;;;;;;10581757;28;19918;-79
2023/03/29 06:58:11;;;;;;;3.40;1.95;;;;;;;;;;10580832;28;20080;-79
2023/03/29 07:03:18;;;;;;;2.45;1.48;;;;;;;;;;10559410;28;20032;-80
2023/03/29 07:08:21;;;;;;;3.10;1.80;;;;;;;;;;10557157;28;20020;-81
2023/03/29 07:13:22;;;;;;;3.70;2.15;;;;;;;;;;10565125;28;20122;-83
2023/03/29 07:18:23;;;;;;;4.90;2.67;;;;;;;;;;10567403;28;20028;-80
2023/03/29 07:23:24;;;;;;;;;;;;;;;;;;10566744;28;20028;-81
2023/03/29 07:28:25;;;;;;;3.90;2.83;;;;;;;;;;10563284;28;20338;-80
2023/03/29 07:33:26;;;;;;;;;;;;;;;;;;10561923;28;20101;-80
2023/03/29 07:38:27;;;;;;;3.53;2.00;;;;;;;;;;10557618;28;19908;-80
2023/03/29 07:43:28;;;;;;;4.22;2.45;;;;;;;;;;10556700;28;20071;-80
2023/03/29 07:48:29;;;;;;;;;;;;;;;;;;10560094;28;20127;-80
2023/03/29 07:53:30;;;;;;;4.45;2.30;;;;;;;;;;10560056;28;20323;-80
2023/03/29 07:58:31;;;;;;;2.75;1.83;;;;;;;;;;10559273;28;20058;-80
2023/03/29 08:03:32;;;;;;;;;;;;;;;;;;10555601;28;20070;-80
2023/03/29 08:08:33;;;;;;;4.20;2.15;;;;;;;;;;10553908;28;19912;-79
2023/03/29 08:13:34;;;;;;;;;;;;;;;;;;10552945;28;20024;-80
2023/03/29 08:18:35;;;;;;;4.60;2.30;;;;;;;;;;10554207;28;19904;-79
2023/03/29 08:23:36;;;;;;;;;;;;;;;;;;10556315;28;20091;-81
2023/03/29 08:28:37;;;;;;;3.00;1.95;;;;;;;;;;10565715;28;20002;-81
2023/03/29 08:33:38;;;;;;;3.13;1.80;;;;;;;;;;10576096;28;20031;-81
2023/03/29 08:38:40;;;;;;;3.40;2.10;;;;;;;;;;10569957;28;20058;-80
2023/03/29 08:43:41;;;;;;;3.85;2.00;;;;;;;;;;10573387;28;20016;-80
2023/03/29 08:48:47;;;;;;;4.43;2.22;;;;;;;;;;10569453;28;20025;-79
2023/03/29 08:53:51;;;;;;;3.50;2.00;;;;;;;;;;10567112;28;20077;-78
2023/03/29 08:58:53;;;;;;;3.50;2.00;;;;;;;;;;10559384;28;20020;-84
2023/03/29 09:04:14;;;;;;;5.70;2.40;;;;;;;;;;10553106;28;20118;-79
2023/03/29 09:09:17;;;;;;;4.28;2.38;;;;;;;;;;10551255;28;20020;-80
2023/03/29 09:14:21;;;;;;;4.20;1.90;;;;;;;;;;10552112;28;20091;-79
2023/03/29 09:19:44;;;;;;;5.20;2.47;;;;;;;;;;10551360;28;20122;-80
2023/03/29 09:25:02;;;;;;;6.35;2.28;;;;;;;;;;10554705;28;20024;-81
2023/03/29 09:30:14;;;;;;;4.80;2.45;;;;;;;;;;10555792;28;20028;-79
2023/03/29 09:35:21;;;;;;;3.95;2.33;;;;;;;;;;10553848;28;20469;-79
2023/03/29 09:40:22;;;;;;;3.58;1.70;;;;;;;;;;10554577;28;20024;-79
2023/03/29 09:45:23;;;;;;;;;;;;;;;;;;10558971;28;20032;-79
2023/03/29 09:50:30;;;;;;;4.72;2.65;;;;;;;;;;10555900;28;19918;-80
2023/03/29 09:55:35;;;;;;;4.63;3.13;;;;;;;;;;10554517;28;20031;-79
2023/03/29 10:00:36;;;;;;;3.58;2.17;;;;;;;;;;10551704;28;20032;-79
2023/03/29 10:05:37;;;;;;;4.72;2.80;;;;;;;;;;10553498;28;20062;-80
2023/03/29 10:10:38;;;;;;;;;;;;;;;;;;10553696;28;20024;-79
2023/03/29 10:15:41;;;;;;;2.80;1.70;;;;;;;;;;10555090;28;19930;-81
2023/03/29 10:20:42;;;;;;;4.82;2.45;;;;;;;;;;10554726;28;20028;-80
2023/03/29 10:25:44;;;;;;;;;;;;;;;;;;10552833;28;20059;-80
2023/03/29 10:30:47;;;;;;;5.65;2.88;;;;;;;;;;10548739;28;19908;-81
2023/03/29 10:35:48;;;;;;;5.68;2.88;;;;;;;;;;10552811;28;20048;-80
2023/03/29 10:40:51;;;;;;;20.75;15.50;;;;;;;;;;10548081;28;20040;-81
2023/03/29 10:45:53;;;;;;;5.13;2.80;;;;;;;;;;10558527;28;20028;-79
2023/03/29 10:51:02;;;;;;;3.95;2.38;;;;;;;;;;10558875;28;20027;-81
2023/03/29 10:56:21;;;;;;;5.45;3.67;;;;;;;;;;10560717;28;20385;-80
2023/03/29 11:01:34;;;;;;;7.50;3.33;;;;;;;;;;10562462;28;20020;-80
2023/03/29 11:06:36;;;;;;;3.67;2.40;;;;;;;;;;10556123;28;20435;-81
2023/03/29 11:11:39;;;;;;;;;;;;;;;;;;10554663;28;20032;-82
2023/03/29 11:17:13;;;;;;;5.53;3.53;;;;;;;;;;10553448;28;19965;-80
2023/03/29 11:22:32;;;;;;;5.75;3.30;;;;;;;;;;10544821;28;20032;-81
2023/03/29 11:27:40;;;;;;;5.30;2.70;;;;;;;;;;10554337;28;20040;-80
2023/03/29 11:32:54;;;;;;;4.28;2.78;;;;;;;;;;10554335;28;20458;-80
2023/03/29 11:38:00;;;;;;;5.43;3.25;;;;;;;;;;10549529;28;20021;-81
2023/03/29 11:43:03;;;;;;;5.53;2.90;;;;;;;;;;10550178;28;20099;-81
2023/03/29 11:48:06;;;;;;;6.40;3.15;;;;;;;;;;10551516;28;20121;-80
2023/03/29 11:53:16;;;;;;;6.28;3.05;;;;;;;;;;10549647;28;20035;-81
2023/03/29 11:58:30;;;;;;;6.32;3.53;;;;;;;;;;10549795;28;20130;-81
2023/03/29 12:03:44;;;;;;;3.10;2.55;;;;;;;;;;10555254;22;20056;-80
2023/03/29 12:08:45;;;;;;;3.78;2.70;;;;;;;;;;10425485;28;20034;-80
2023/03/29 12:13:53;;;;;;;3.95;2.63;;;;;;;;;;10425569;28;20021;-80
2023/03/29 12:18:59;;;;;;;5.00;2.95;;;;;;;;;;10423463;28;20052;-80
2023/03/29 12:24:11;;;;;;;6.03;2.80;;;;;;;;;;10422846;28;20045;-82
2023/03/29 12:29:12;;;;;;;6.22;3.17;;;;;;;;;;10424379;28;20033;-81
2023/03/29 12:34:13;;;;;;;8.18;4.25;;;;;;;;;;10422232;28;20029;-80
2023/03/29 12:39:14;;;;;;;;;;;;;;;;;;10421433;28;20060;-81
2023/03/29 12:44:18;;;;;;;3.28;2.20;;;;;;;;;;10420903;28;19912;-80
2023/03/29 12:49:37;;;;;;;5.43;3.15;;;;;;;;;;10418322;28;20025;-80
2023/03/29 12:54:40;;;;;;;3.83;2.47;;;;;;;;;;10416778;28;20113;-81
2023/03/29 12:59:47;;;;;;;6.15;3.10;;;;;;;;;;10421355;28;20092;-82
2023/03/29 13:04:50;;;;;;;5.28;2.35;;;;;;;;;;10420878;28;20060;-81
2023/03/29 13:09:51;;;;;;;4.45;2.70;;;;;;;;;;10419859;28;20021;-81
2023/03/29 13:14:57;;;;;;;6.43;3.47;;;;;;;;;;10422330;28;20032;-82
2023/03/29 13:20:17;;;;;;;5.50;2.85;;;;;;;;;;10419824;28;20099;-81
2023/03/29 13:25:40;;;;;;;5.32;2.85;;;;;;;;;;10421995;28;20039;-82
2023/03/29 13:31:04;;;;;;;3.47;2.30;;;;;;;;;;10418891;28;20034;-81
2023/03/29 13:36:09;;;;;;;3.15;2.30;;;;;;;;;;10418723;28;20021;-81
2023/03/29 13:41:24;;;;;;;4.32;2.50;;;;;;;;;;10417732;28;20127;-81
2023/03/29 13:46:41;;;;;;;7.55;3.70;;;;;;;;;;10417340;28;20033;-81
2023/03/29 13:51:48;;;;;;;5.35;2.88;;;;;;;;;;10420070;28;20036;-81
2023/03/29 13:56:58;;;;;;;4.90;2.25;;;;;;;;;;10419729;28;20074;-82
2023/03/29 14:02:01;;;;;;;8.23;3.77;;;;;;;;;;10420692;28;20025;-82
2023/03/29 14:07:04;;;;;;;4.80;2.67;;;;;;;;;;10419422;28;20359;-81
2023/03/29 14:12:09;;;;;;;4.90;2.63;;;;;;;;;;10425193;28;20030;-82
2023/03/29 14:17:18;;;;;;;4.57;2.95;;;;;;;;;;10430541;28;20022;-82
2023/03/29 14:22:20;;;;;;;5.35;2.95;;;;;;;;;;10430387;28;20034;-82
2023/03/29 14:27:21;;;;;;;3.88;2.38;;;;;;;;;;10435015;28;20033;-79
2023/03/29 14:32:30;;;;;;;4.45;2.42;;;;;;;;;;10438456;28;20025;-81
2023/03/29 14:37:32;;;;;;;4.50;2.42;;;;;;;;;;10441425;28;20057;-80
2023/03/29 14:42:33;;;;;;;5.18;3.22;;;;;;;;;;10439523;28;20026;-80
2023/03/29 14:47:35;;;;;;;4.95;2.63;;;;;;;;;;10441883;28;20045;-81
2023/03/29 14:52:36;;;;;;;3.13;1.98;;;;;;;;;;10439704;28;20066;-82
2023/03/29 14:57:38;;;;;;;3.47;1.60;;;;;;;;;;10434679;28;20021;-79
2023/03/29 15:02:58;;;;;;;4.60;2.00;;;;;;;;;;10437617;28;20021;-80
2023/03/29 15:08:01;;;;;;;5.22;2.28;;;;;;;;;;10430909;28;20045;-81
2023/03/29 15:13:04;;;;;;;5.50;2.50;;;;;;;;;;10434343;28;20037;-80
2023/03/29 15:18:05;;;;;;;3.17;1.98;;;;;;;;;;10430491;28;20468;-79
2023/03/29 15:23:16;;;;;;;2.72;1.98;;;;;;;;;;10435422;28;20043;-80
2023/03/29 15:28:27;;;;;;;2.80;1.80;;;;;;;;;;10434984;28;20085;-79
2023/03/29 15:33:32;;;;;;;3.95;1.60;;;;;;;;;;10442485;28;20052;-79
2023/03/29 15:38:35;;;;;;;6.63;2.33;;;;;;;;;;10437794;28;20054;-80
2023/03/29 15:43:36;;;;;;;4.55;2.25;;;;;;;;;;10442994;28;20030;-79
2023/03/29 15:48:39;;;;;;;3.97;2.03;;;;;;;;;;10451534;28;20029;-79
2023/03/29 15:53:41;;;;;;;5.32;2.40;;;;;;;;;;10458375;28;20021;-79
2023/03/29 15:58:42;;;;;;;3.83;2.00;;;;;;;;;;10433888;28;20037;-80
2023/03/29 16:03:44;;;;;;;3.22;2.15;;;;;;;;;;10427930;28;20034;-79
2023/03/29 16:08:45;;;;;;;4.35;2.00;;;;;;;;;;10428629;28;20029;-80
2023/03/29 16:13:46;;;;;;;3.53;1.60;;;;;;;;;;10431548;28;20037;-80
2023/03/29 16:18:47;;;;;;;3.35;1.70;;;;;;;;;;10430119;28;20025;-80
2023/03/29 16:23:48;;;;;;;3.60;1.70;;;;;;;;;;10427789;28;20026;-83
2023/03/29 16:28:50;;;;;;;3.88;2.00;;;;;;;;;;10433460;28;20339;-83
2023/03/29 16:33:54;;;;;;;3.45;1.83;;;;;;;;;;10432443;28;20025;-83
2023/03/29 16:38:56;;;;;;;2.72;1.63;;;;;;;;;;10432025;28;20065;-82
2023/03/29 16:43:59;;;;;;;2.90;1.60;;;;;;;;;;10428969;28;20022;-83
2023/03/29 16:49:00;;;;;;;3.10;1.70;;;;;;;;;;10428700;28;20091;-83
2023/03/29 16:54:08;;;;;;;3.25;1.75;;;;;;;;;;10428487;28;20079;-83
2023/03/29 16:59:11;;;;;;;3.67;1.73;;;;;;;;;;10416572;28;20120;-83
2023/03/29 17:04:14;;;;;;;3.28;1.88;;;;;;;;;;10432535;28;20479;-83
2023/03/29 17:09:19;;;;;;;3.65;1.90;;;;;;;;;;10433414;28;20021;-83
2023/03/29 17:14:21;;;;;;;3.88;1.70;;;;;;;;;;10431775;28;20031;-82
2023/03/29 17:19:22;;;;;;;3.53;2.03;;;;;;;;;;10432454;28;20064;-83
2023/03/29 17:24:23;;;;;;;4.13;2.00;;;;;;;;;;10430117;28;20109;-83
2023/03/29 17:29:24;;;;;;;3.75;2.35;;;;;;;;;;10429764;28;20072;-83
2023/03/29 17:34:27;;;;;;;4.18;2.38;;;;;;;;;;10429613;28;20056;-83
2023/03/29 17:39:29;;;;;;;4.10;2.20;;;;;;;;;;10428399;28;20021;-83
2023/03/29 17:44:32;;;;;;;4.75;2.35;;;;;;;;;;10428195;28;20068;-83
2023/03/29 17:49:33;;;;;;;5.38;2.22;;;;;;;;;;10430100;28;20025;-83
2023/03/29 17:54:34;;;;;;;5.82;3.40;;;;;;;;;;10427289;28;20097;-83
2023/03/29 17:59:36;;;;;;;5.22;3.55;;;;;;;;;;10427479;28;20037;-83
2023/03/29 18:04:37;;;;;;;4.43;3.15;;;;;;;;;;10438734;22;20045;-81
2023/03/29 18:09:38;;;;;;;4.07;2.55;;;;;;;;;;10386464;28;20464;-81
2023/03/29 18:14:39;;;;;;;3.50;2.15;;;;;;;;;;10385352;28;20049;-80
2023/03/29 18:19:41;;;;;;;5.03;3.08;;;;;;;;;;10384963;28;20037;-80
2023/03/29 18:24:42;;;;;;;7.80;2.42;;;;;;;;;;10384680;28;20034;-81
2023/03/29 18:29:43;;;;;;;4.78;3.15;;;;;;;;;;10384427;28;20037;-80
2023/03/29 18:34:44;;;;;;;4.47;2.85;;;;;;;;;;10383824;28;20018;-79
2023/03/29 18:39:46;;;;;;;6.20;3.83;;;;;;;;;;10384516;28;20491;-80
2023/03/29 18:44:47;;;;;;;4.53;2.10;;;;;;;;;;10384628;28;20117;-80
2023/03/29 18:49:48;;;;;;;4.60;2.65;;;;;;;;;;10383126;28;20028;-80
2023/03/29 18:54:50;;;;;;;3.88;2.30;;;;;;;;;;10383153;28;20033;-80
2023/03/29 18:59:51;;;;;;;5.13;2.40;;;;;;;;;;10390297;28;20080;-80
2023/03/29 19:04:52;;;;;;;4.85;2.38;;;;;;;;;;10391576;28;20061;-80
2023/03/29 19:09:53;;;;;;;2.83;1.88;;;;;;;;;;10389659;28;20033;-80
2023/03/29 19:14:55;;;;;;;5.13;2.30;;;;;;;;;;10374874;28;20030;-80
